sensor_id;sensor_type;location;lat;lon;timestamp;P1;P2;P0
62591;PMS5003;48659;41.622;2.276;2023-03-14T00:00:07;8;5;
62591;PMS5003;48659;41.622;2.276;2023-03-14T00:02:36;6;5;
62591;PMS5003;48659;41.622;2.276;2023-03-14T00:05:04;8;6;
62591;PMS5003;48659;41.622;2.276;2023-03-14T00:07:33;5;4;
62591;PMS5003;48659;41.622;2.276;2023-03-14T00:10:02;7;5;
62591;PMS5003;48659;41.622;2.276;2023-03-14T00:12:30;12;7;
62591;PMS5003;48659;41.622;2.276;2023-03-14T00:14:58;8;8;
62591;PMS5003;48659;41.622;2.276;2023-03-14T00:17:25;16;13;
62591;PMS5003;48659;41.622;2.276;2023-03-14T00:19:53;13;10;
62591;PMS5003;48659;41.622;2.276;2023-03-14T00:22:21;14;13;
62591;PMS5003;48659;41.622;2.276;2023-03-14T00:24:50;17;13;
62591;PMS5003;48659;41.622;2.276;2023-03-14T00:27:17;19;15;
62591;PMS5003;48659;41.622;2.276;2023-03-14T00:29:46;18;16;
62591;PMS5003;48659;41.622;2.276;2023-03-14T00:32:14;13;12;
62591;PMS5003;48659;41.622;2.276;2023-03-14T00:34:42;17;14;
62591;PMS5003;48659;41.622;2.276;2023-03-14T00:37:09;15;13;
62591;PMS5003;48659;41.622;2.276;2023-03-14T00:39:36;12;12;
62591;PMS5003;48659;41.622;2.276;2023-03-14T00:42:04;14;13;
62591;PMS5003;48659;41.622;2.276;2023-03-14T00:44:31;17;15;
62591;PMS5003;48659;41.622;2.276;2023-03-14T00:46:59;12;12;
62591;PMS5003;48659;41.622;2.276;2023-03-14T00:49:26;11;11;
62591;PMS5003;48659;41.622;2.276;2023-03-14T00:51:54;12;11;
62591;PMS5003;48659;41.622;2.276;2023-03-14T00:54:22;14;13;
62591;PMS5003;48659;41.622;2.276;2023-03-14T00:56:50;17;13;
62591;PMS5003;48659;41.622;2.276;2023-03-14T00:59:17;14;13;
62591;PMS5003;48659;41.622;2.276;2023-03-14T01:01:45;12;11;
62591;PMS5003;48659;41.622;2.276;2023-03-14T01:04:12;17;14;
62591;PMS5003;48659;41.622;2.276;2023-03-14T01:06:40;10;10;
62591;PMS5003;48659;41.622;2.276;2023-03-14T01:09:07;13;12;
62591;PMS5003;48659;41.622;2.276;2023-03-14T01:11:34;13;10;
62591;PMS5003;48659;41.622;2.276;2023-03-14T01:14:03;14;13;
62591;PMS5003;48659;41.622;2.276;2023-03-14T01:16:31;9;9;
62591;PMS5003;48659;41.622;2.276;2023-03-14T01:19:00;7;5;
62591;PMS5003;48659;41.622;2.276;2023-03-14T01:21:28;6;6;
62591;PMS5003;48659;41.622;2.276;2023-03-14T01:24:03;7;5;
62591;PMS5003;48659;41.622;2.276;2023-03-14T01:26:33;4;4;
62591;PMS5003;48659;41.622;2.276;2023-03-14T01:29:02;6;6;
62591;PMS5003;48659;41.622;2.276;2023-03-14T01:31:30;7;5;
62591;PMS5003;48659;41.622;2.276;2023-03-14T01:33:57;5;5;
62591;PMS5003;48659;41.622;2.276;2023-03-14T01:36:25;7;7;
62591;PMS5003;48659;41.622;2.276;2023-03-14T01:38:53;4;3;
62591;PMS5003;48659;41.622;2.276;2023-03-14T01:41:21;8;6;
62591;PMS5003;48659;41.622;2.276;2023-03-14T01:43:51;5;5;
62591;PMS5003;48659;41.622;2.276;2023-03-14T01:46:24;5;5;
62591;PMS5003;48659;41.622;2.276;2023-03-14T01:48:59;9;6;
62591;PMS5003;48659;41.622;2.276;2023-03-14T01:51:31;5;5;
62591;PMS5003;48659;41.622;2.276;2023-03-14T01:54:14;5;5;
62591;PMS5003;48659;41.622;2.276;2023-03-14T01:56:48;8;4;
62591;PMS5003;48659;41.622;2.276;2023-03-14T01:59:20;12;7;
62591;PMS5003;48659;41.622;2.276;2023-03-14T02:01:49;6;6;
62591;PMS5003;48659;41.622;2.276;2023-03-14T02:04:18;4;4;
62591;PMS5003;48659;41.622;2.276;2023-03-14T02:06:50;8;5;
62591;PMS5003;48659;41.622;2.276;2023-03-14T02:09:21;6;6;
62591;PMS5003;48659;41.622;2.276;2023-03-14T02:11:49;5;4;
62591;PMS5003;48659;41.622;2.276;2023-03-14T02:14:21;8;5;
62591;PMS5003;48659;41.622;2.276;2023-03-14T02:16:55;8;7;
62591;PMS5003;48659;41.622;2.276;2023-03-14T02:19:25;8;8;
62591;PMS5003;48659;41.622;2.276;2023-03-14T02:22:02;11;8;
62591;PMS5003;48659;41.622;2.276;2023-03-14T02:24:34;14;12;
62591;PMS5003;48659;41.622;2.276;2023-03-14T02:27:10;8;6;
62591;PMS5003;48659;41.622;2.276;2023-03-14T02:29:40;9;6;
62591;PMS5003;48659;41.622;2.276;2023-03-14T02:32:12;9;7;
62591;PMS5003;48659;41.622;2.276;2023-03-14T02:34:44;10;7;
62591;PMS5003;48659;41.622;2.276;2023-03-14T02:37:13;5;5;
62591;PMS5003;48659;41.622;2.276;2023-03-14T02:39:44;5;5;
62591;PMS5003;48659;41.622;2.276;2023-03-14T02:42:13;10;4;
62591;PMS5003;48659;41.622;2.276;2023-03-14T02:44:59;8;5;
62591;PMS5003;48659;41.622;2.276;2023-03-14T02:48:02;5;5;
62591;PMS5003;48659;41.622;2.276;2023-03-14T02:50:32;3;3;
62591;PMS5003;48659;41.622;2.276;2023-03-14T02:53:00;3;2;
62591;PMS5003;48659;41.622;2.276;2023-03-14T02:55:28;5;3;
62591;PMS5003;48659;41.622;2.276;2023-03-14T02:57:56;4;3;
62591;PMS5003;48659;41.622;2.276;2023-03-14T03:00:24;4;3;
62591;PMS5003;48659;41.622;2.276;2023-03-14T03:02:51;5;4;
62591;PMS5003;48659;41.622;2.276;2023-03-14T03:05:20;5;5;
62591;PMS5003;48659;41.622;2.276;2023-03-14T03:07:47;5;5;
62591;PMS5003;48659;41.622;2.276;2023-03-14T03:10:14;7;4;
62591;PMS5003;48659;41.622;2.276;2023-03-14T03:12:42;8;7;
62591;PMS5003;48659;41.622;2.276;2023-03-14T03:15:10;6;3;
62591;PMS5003;48659;41.622;2.276;2023-03-14T03:20:46;5;3;
62591;PMS5003;48659;41.622;2.276;2023-03-14T03:23:14;8;5;
62591;PMS5003;48659;41.622;2.276;2023-03-14T03:25:47;7;5;
62591;PMS5003;48659;41.622;2.276;2023-03-14T03:28:15;4;3;
62591;PMS5003;48659;41.622;2.276;2023-03-14T03:30:43;6;5;
62591;PMS5003;48659;41.622;2.276;2023-03-14T03:33:12;5;5;
62591;PMS5003;48659;41.622;2.276;2023-03-14T03:35:44;4;3;
62591;PMS5003;48659;41.622;2.276;2023-03-14T03:38:13;11;8;
62591;PMS5003;48659;41.622;2.276;2023-03-14T03:40:41;7;3;
62591;PMS5003;48659;41.622;2.276;2023-03-14T03:43:09;8;3;
62591;PMS5003;48659;41.622;2.276;2023-03-14T03:45:36;4;2;
62591;PMS5003;48659;41.622;2.276;2023-03-14T03:48:04;5;3;
62591;PMS5003;48659;41.622;2.276;2023-03-14T03:50:32;6;4;
62591;PMS5003;48659;41.622;2.276;2023-03-14T03:53:00;6;4;
62591;PMS5003;48659;41.622;2.276;2023-03-14T03:55:27;4;2;
62591;PMS5003;48659;41.622;2.276;2023-03-14T03:57:56;5;4;
62591;PMS5003;48659;41.622;2.276;2023-03-14T04:00:28;4;2;
62591;PMS5003;48659;41.622;2.276;2023-03-14T04:02:55;3;2;
62591;PMS5003;48659;41.622;2.276;2023-03-14T04:05:24;10;8;
62591;PMS5003;48659;41.622;2.276;2023-03-14T04:07:51;10;4;
62591;PMS5003;48659;41.622;2.276;2023-03-14T04:10:19;8;4;
62591;PMS5003;48659;41.622;2.276;2023-03-14T04:12:46;6;4;
62591;PMS5003;48659;41.622;2.276;2023-03-14T04:15:14;5;4;
62591;PMS5003;48659;41.622;2.276;2023-03-14T04:17:46;5;4;
62591;PMS5003;48659;41.622;2.276;2023-03-14T04:20:14;8;5;
62591;PMS5003;48659;41.622;2.276;2023-03-14T04:22:42;10;8;
62591;PMS5003;48659;41.622;2.276;2023-03-14T04:25:17;6;5;
62591;PMS5003;48659;41.622;2.276;2023-03-14T04:27:45;6;4;
62591;PMS5003;48659;41.622;2.276;2023-03-14T04:30:15;5;4;
62591;PMS5003;48659;41.622;2.276;2023-03-14T04:32:44;8;7;
62591;PMS5003;48659;41.622;2.276;2023-03-14T04:35:15;13;5;
62591;PMS5003;48659;41.622;2.276;2023-03-14T04:37:44;5;5;
62591;PMS5003;48659;41.622;2.276;2023-03-14T04:40:18;11;9;
62591;PMS5003;48659;41.622;2.276;2023-03-14T04:42:45;8;5;
62591;PMS5003;48659;41.622;2.276;2023-03-14T04:45:15;15;12;
62591;PMS5003;48659;41.622;2.276;2023-03-14T04:47:43;14;8;
62591;PMS5003;48659;41.622;2.276;2023-03-14T04:50:11;13;9;
62591;PMS5003;48659;41.622;2.276;2023-03-14T04:52:38;7;6;
62591;PMS5003;48659;41.622;2.276;2023-03-14T04:55:05;12;6;
62591;PMS5003;48659;41.622;2.276;2023-03-14T04:57:33;4;4;
62591;PMS5003;48659;41.622;2.276;2023-03-14T05:00:00;6;5;
62591;PMS5003;48659;41.622;2.276;2023-03-14T05:02:28;6;3;
62591;PMS5003;48659;41.622;2.276;2023-03-14T05:04:55;8;7;
62591;PMS5003;48659;41.622;2.276;2023-03-14T05:07:27;5;5;
62591;PMS5003;48659;41.622;2.276;2023-03-14T05:09:55;5;2;
62591;PMS5003;48659;41.622;2.276;2023-03-14T05:12:22;7;5;
62591;PMS5003;48659;41.622;2.276;2023-03-14T05:14:50;6;4;
62591;PMS5003;48659;41.622;2.276;2023-03-14T05:17:17;10;8;
62591;PMS5003;48659;41.622;2.276;2023-03-14T05:19:45;7;4;
62591;PMS5003;48659;41.622;2.276;2023-03-14T05:22:13;6;6;
62591;PMS5003;48659;41.622;2.276;2023-03-14T05:24:41;9;7;
62591;PMS5003;48659;41.622;2.276;2023-03-14T05:27:16;7;5;
62591;PMS5003;48659;41.622;2.276;2023-03-14T05:29:43;8;5;
62591;PMS5003;48659;41.622;2.276;2023-03-14T05:32:11;6;6;
62591;PMS5003;48659;41.622;2.276;2023-03-14T05:34:38;7;6;
62591;PMS5003;48659;41.622;2.276;2023-03-14T05:37:05;18;15;
62591;PMS5003;48659;41.622;2.276;2023-03-14T05:39:33;18;16;
62591;PMS5003;48659;41.622;2.276;2023-03-14T05:42:01;18;14;
62591;PMS5003;48659;41.622;2.276;2023-03-14T05:44:28;20;18;
62591;PMS5003;48659;41.622;2.276;2023-03-14T05:46:55;24;19;
62591;PMS5003;48659;41.622;2.276;2023-03-14T05:49:22;17;14;
62591;PMS5003;48659;41.622;2.276;2023-03-14T05:51:51;23;17;
62591;PMS5003;48659;41.622;2.276;2023-03-14T05:54:19;22;20;
62591;PMS5003;48659;41.622;2.276;2023-03-14T05:56:46;16;12;
62591;PMS5003;48659;41.622;2.276;2023-03-14T05:59:13;18;11;
62591;PMS5003;48659;41.622;2.276;2023-03-14T06:01:41;15;13;
62591;PMS5003;48659;41.622;2.276;2023-03-14T06:04:16;15;8;
62591;PMS5003;48659;41.622;2.276;2023-03-14T06:06:44;13;9;
62591;PMS5003;48659;41.622;2.276;2023-03-14T06:09:16;5;5;
62591;PMS5003;48659;41.622;2.276;2023-03-14T06:11:43;7;5;
62591;PMS5003;48659;41.622;2.276;2023-03-14T06:14:17;5;4;
62591;PMS5003;48659;41.622;2.276;2023-03-14T06:16:45;8;5;
62591;PMS5003;48659;41.622;2.276;2023-03-14T06:19:16;2;2;
62591;PMS5003;48659;41.622;2.276;2023-03-14T06:21:44;3;2;
62591;PMS5003;48659;41.622;2.276;2023-03-14T06:24:16;3;3;
62591;PMS5003;48659;41.622;2.276;2023-03-14T06:26:43;4;3;
62591;PMS5003;48659;41.622;2.276;2023-03-14T06:29:16;2;1;
62591;PMS5003;48659;41.622;2.276;2023-03-14T06:31:43;3;2;
62591;PMS5003;48659;41.622;2.276;2023-03-14T06:34:15;1;1;
62591;PMS5003;48659;41.622;2.276;2023-03-14T06:36:42;1;1;
62591;PMS5003;48659;41.622;2.276;2023-03-14T06:39:15;3;2;
62591;PMS5003;48659;41.622;2.276;2023-03-14T06:41:43;0;0;
62591;PMS5003;48659;41.622;2.276;2023-03-14T06:44:16;1;1;
62591;PMS5003;48659;41.622;2.276;2023-03-14T06:46:44;1;1;
62591;PMS5003;48659;41.622;2.276;2023-03-14T06:49:11;2;2;
62591;PMS5003;48659;41.622;2.276;2023-03-14T06:51:39;2;1;
62591;PMS5003;48659;41.622;2.276;2023-03-14T06:54:07;3;1;
62591;PMS5003;48659;41.622;2.276;2023-03-14T06:56:43;7;4;
62591;PMS5003;48659;41.622;2.276;2023-03-14T06:59:16;0;0;
62591;PMS5003;48659;41.622;2.276;2023-03-14T07:01:44;3;0;
62591;PMS5003;48659;41.622;2.276;2023-03-14T07:04:16;1;1;
62591;PMS5003;48659;41.622;2.276;2023-03-14T07:06:43;2;2;
62591;PMS5003;48659;41.622;2.276;2023-03-14T07:09:16;9;2;
62591;PMS5003;48659;41.622;2.276;2023-03-14T07:11:43;3;3;
62591;PMS5003;48659;41.622;2.276;2023-03-14T07:14:15;7;7;
62591;PMS5003;48659;41.622;2.276;2023-03-14T07:16:43;5;3;
62591;PMS5003;48659;41.622;2.276;2023-03-14T07:19:10;4;4;
62591;PMS5003;48659;41.622;2.276;2023-03-14T07:21:39;4;4;
62591;PMS5003;48659;41.622;2.276;2023-03-14T07:24:06;3;3;
62591;PMS5003;48659;41.622;2.276;2023-03-14T07:26:34;6;3;
62591;PMS5003;48659;41.622;2.276;2023-03-14T07:29:02;3;3;
62591;PMS5003;48659;41.622;2.276;2023-03-14T07:31:29;3;3;
62591;PMS5003;48659;41.622;2.276;2023-03-14T07:33:57;2;2;
62591;PMS5003;48659;41.622;2.276;2023-03-14T07:36:25;4;4;
62591;PMS5003;48659;41.622;2.276;2023-03-14T07:38:52;3;3;
62591;PMS5003;48659;41.622;2.276;2023-03-14T07:41:19;7;5;
62591;PMS5003;48659;41.622;2.276;2023-03-14T07:43:47;6;5;
62591;PMS5003;48659;41.622;2.276;2023-03-14T07:46:16;11;11;
62591;PMS5003;48659;41.622;2.276;2023-03-14T07:48:43;19;13;
62591;PMS5003;48659;41.622;2.276;2023-03-14T07:51:16;17;16;
62591;PMS5003;48659;41.622;2.276;2023-03-14T07:53:45;15;14;
62591;PMS5003;48659;41.622;2.276;2023-03-14T07:56:16;11;9;
62591;PMS5003;48659;41.622;2.276;2023-03-14T07:58:44;2;2;
62591;PMS5003;48659;41.622;2.276;2023-03-14T08:01:15;2;2;
62591;PMS5003;48659;41.622;2.276;2023-03-14T08:03:44;2;2;
62591;PMS5003;48659;41.622;2.276;2023-03-14T08:06:16;2;2;
62591;PMS5003;48659;41.622;2.276;2023-03-14T08:08:43;4;2;
62591;PMS5003;48659;41.622;2.276;2023-03-14T08:11:17;2;2;
62591;PMS5003;48659;41.622;2.276;2023-03-14T08:13:44;3;2;
62591;PMS5003;48659;41.622;2.276;2023-03-14T08:16:17;0;0;
62591;PMS5003;48659;41.622;2.276;2023-03-14T08:18:45;0;0;
62591;PMS5003;48659;41.622;2.276;2023-03-14T08:21:16;3;1;
62591;PMS5003;48659;41.622;2.276;2023-03-14T08:23:44;3;3;
62591;PMS5003;48659;41.622;2.276;2023-03-14T08:26:16;3;3;
62591;PMS5003;48659;41.622;2.276;2023-03-14T08:28:44;14;11;
62591;PMS5003;48659;41.622;2.276;2023-03-14T08:31:16;5;4;
62591;PMS5003;48659;41.622;2.276;2023-03-14T08:33:44;5;2;
62591;PMS5003;48659;41.622;2.276;2023-03-14T08:36:11;1;1;
62591;PMS5003;48659;41.622;2.276;2023-03-14T08:38:39;1;1;
62591;PMS5003;48659;41.622;2.276;2023-03-14T08:41:06;0;0;
62591;PMS5003;48659;41.622;2.276;2023-03-14T08:43:45;2;2;
62591;PMS5003;48659;41.622;2.276;2023-03-14T08:46:16;1;1;
62591;PMS5003;48659;41.622;2.276;2023-03-14T08:48:43;3;1;
62591;PMS5003;48659;41.622;2.276;2023-03-14T08:51:16;5;2;
62591;PMS5003;48659;41.622;2.276;2023-03-14T08:53:44;2;2;
62591;PMS5003;48659;41.622;2.276;2023-03-14T08:56:17;2;1;
62591;PMS5003;48659;41.622;2.276;2023-03-14T08:58:44;1;1;
62591;PMS5003;48659;41.622;2.276;2023-03-14T09:01:16;0;0;
62591;PMS5003;48659;41.622;2.276;2023-03-14T09:03:44;5;1;
62591;PMS5003;48659;41.622;2.276;2023-03-14T09:06:16;1;1;
62591;PMS5003;48659;41.622;2.276;2023-03-14T09:08:45;4;3;
62591;PMS5003;48659;41.622;2.276;2023-03-14T09:11:16;2;2;
62591;PMS5003;48659;41.622;2.276;2023-03-14T09:13:44;4;2;
62591;PMS5003;48659;41.622;2.276;2023-03-14T09:16:16;2;2;
62591;PMS5003;48659;41.622;2.276;2023-03-14T09:18:44;3;2;
62591;PMS5003;48659;41.622;2.276;2023-03-14T09:21:18;6;3;
62591;PMS5003;48659;41.622;2.276;2023-03-14T09:23:45;3;3;
62591;PMS5003;48659;41.622;2.276;2023-03-14T09:26:17;5;3;
62591;PMS5003;48659;41.622;2.276;2023-03-14T09:28:44;3;1;
62591;PMS5003;48659;41.622;2.276;2023-03-14T09:31:12;2;2;
62591;PMS5003;48659;41.622;2.276;2023-03-14T09:33:41;1;1;
62591;PMS5003;48659;41.622;2.276;2023-03-14T09:36:16;2;1;
62591;PMS5003;48659;41.622;2.276;2023-03-14T09:38:44;1;1;
62591;PMS5003;48659;41.622;2.276;2023-03-14T09:41:18;0;0;
62591;PMS5003;48659;41.622;2.276;2023-03-14T09:43:54;2;2;
62591;PMS5003;48659;41.622;2.276;2023-03-14T09:46:28;1;1;
62591;PMS5003;48659;41.622;2.276;2023-03-14T09:48:57;1;0;
62591;PMS5003;48659;41.622;2.276;2023-03-14T09:51:25;0;0;
62591;PMS5003;48659;41.622;2.276;2023-03-14T09:53:54;2;2;
62591;PMS5003;48659;41.622;2.276;2023-03-14T09:56:23;1;1;
62591;PMS5003;48659;41.622;2.276;2023-03-14T09:58:55;8;8;
62591;PMS5003;48659;41.622;2.276;2023-03-14T10:01:26;5;4;
62591;PMS5003;48659;41.622;2.276;2023-03-14T10:03:55;4;1;
62591;PMS5003;48659;41.622;2.276;2023-03-14T10:06:24;1;1;
62591;PMS5003;48659;41.622;2.276;2023-03-14T10:08:54;0;0;
62591;PMS5003;48659;41.622;2.276;2023-03-14T10:11:23;1;1;
62591;PMS5003;48659;41.622;2.276;2023-03-14T10:14:17;4;2;
62591;PMS5003;48659;41.622;2.276;2023-03-14T10:17:04;1;1;
62591;PMS5003;48659;41.622;2.276;2023-03-14T10:19:33;2;2;
62591;PMS5003;48659;41.622;2.276;2023-03-14T10:22:02;1;1;
62591;PMS5003;48659;41.622;2.276;2023-03-14T10:24:31;3;1;
62591;PMS5003;48659;41.622;2.276;2023-03-14T10:27:01;3;1;
62591;PMS5003;48659;41.622;2.276;2023-03-14T10:29:30;3;1;
62591;PMS5003;48659;41.622;2.276;2023-03-14T10:31:59;0;0;
62591;PMS5003;48659;41.622;2.276;2023-03-14T10:34:29;4;2;
62591;PMS5003;48659;41.622;2.276;2023-03-14T10:36:58;3;1;
62591;PMS5003;48659;41.622;2.276;2023-03-14T10:39:35;2;1;
62591;PMS5003;48659;41.622;2.276;2023-03-14T10:42:18;2;2;
62591;PMS5003;48659;41.622;2.276;2023-03-14T10:44:56;2;0;
62591;PMS5003;48659;41.622;2.276;2023-03-14T10:47:27;1;1;
62591;PMS5003;48659;41.622;2.276;2023-03-14T10:49:54;3;2;
62591;PMS5003;48659;41.622;2.276;2023-03-14T10:52:24;3;1;
62591;PMS5003;48659;41.622;2.276;2023-03-14T10:54:54;0;0;
62591;PMS5003;48659;41.622;2.276;2023-03-14T10:57:24;4;2;
62591;PMS5003;48659;41.622;2.276;2023-03-14T10:59:52;3;2;
62591;PMS5003;48659;41.622;2.276;2023-03-14T11:02:27;1;0;
62591;PMS5003;48659;41.622;2.276;2023-03-14T11:05:06;1;1;
62591;PMS5003;48659;41.622;2.276;2023-03-14T11:07:42;2;2;
62591;PMS5003;48659;41.622;2.276;2023-03-14T11:10:19;3;3;
62591;PMS5003;48659;41.622;2.276;2023-03-14T11:12:59;1;1;
62591;PMS5003;48659;41.622;2.276;2023-03-14T11:15:48;0;0;
62591;PMS5003;48659;41.622;2.276;2023-03-14T11:18:29;5;1;
62591;PMS5003;48659;41.622;2.276;2023-03-14T11:21:26;1;1;
62591;PMS5003;48659;41.622;2.276;2023-03-14T11:24:04;1;1;
62591;PMS5003;48659;41.622;2.276;2023-03-14T11:26:53;1;1;
62591;PMS5003;48659;41.622;2.276;2023-03-14T11:29:27;1;1;
62591;PMS5003;48659;41.622;2.276;2023-03-14T11:32:00;4;3;
62591;PMS5003;48659;41.622;2.276;2023-03-14T11:34:35;1;1;
62591;PMS5003;48659;41.622;2.276;2023-03-14T11:37:13;1;1;
62591;PMS5003;48659;41.622;2.276;2023-03-14T11:39:44;2;1;
62591;PMS5003;48659;41.622;2.276;2023-03-14T11:42:21;2;2;
62591;PMS5003;48659;41.622;2.276;2023-03-14T11:44:50;0;0;
62591;PMS5003;48659;41.622;2.276;2023-03-14T11:47:21;1;0;
62591;PMS5003;48659;41.622;2.276;2023-03-14T11:49:53;1;0;
62591;PMS5003;48659;41.622;2.276;2023-03-14T11:52:25;1;1;
62591;PMS5003;48659;41.622;2.276;2023-03-14T11:54:58;0;0;
62591;PMS5003;48659;41.622;2.276;2023-03-14T11:57:28;2;2;
62591;PMS5003;48659;41.622;2.276;2023-03-14T11:59:56;2;2;
62591;PMS5003;48659;41.622;2.276;2023-03-14T12:02:31;2;2;
62591;PMS5003;48659;41.622;2.276;2023-03-14T12:05:30;3;1;
62591;PMS5003;48659;41.622;2.276;2023-03-14T12:08:48;1;1;
62591;PMS5003;48659;41.622;2.276;2023-03-14T12:11:18;4;3;
62591;PMS5003;48659;41.622;2.276;2023-03-14T12:13:52;6;4;
62591;PMS5003;48659;41.622;2.276;2023-03-14T12:16:27;4;1;
62591;PMS5003;48659;41.622;2.276;2023-03-14T12:19:23;0;0;
62591;PMS5003;48659;41.622;2.276;2023-03-14T12:21:55;0;0;
62591;PMS5003;48659;41.622;2.276;2023-03-14T12:24:27;0;0;
62591;PMS5003;48659;41.622;2.276;2023-03-14T12:26:59;1;1;
62591;PMS5003;48659;41.622;2.276;2023-03-14T12:29:28;1;1;
62591;PMS5003;48659;41.622;2.276;2023-03-14T12:32:28;1;1;
62591;PMS5003;48659;41.622;2.276;2023-03-14T12:34:56;1;1;
62591;PMS5003;48659;41.622;2.276;2023-03-14T12:37:59;0;0;
62591;PMS5003;48659;41.622;2.276;2023-03-14T12:40:30;1;1;
62591;PMS5003;48659;41.622;2.276;2023-03-14T12:42:59;1;1;
62591;PMS5003;48659;41.622;2.276;2023-03-14T12:45:28;1;0;
62591;PMS5003;48659;41.622;2.276;2023-03-14T12:48:04;0;0;
62591;PMS5003;48659;41.622;2.276;2023-03-14T12:50:41;0;0;
62591;PMS5003;48659;41.622;2.276;2023-03-14T12:53:16;2;0;
62591;PMS5003;48659;41.622;2.276;2023-03-14T12:56:28;0;0;
62591;PMS5003;48659;41.622;2.276;2023-03-14T12:59:33;0;0;
62591;PMS5003;48659;41.622;2.276;2023-03-14T13:02:13;2;0;
62591;PMS5003;48659;41.622;2.276;2023-03-14T13:04:48;0;0;
62591;PMS5003;48659;41.622;2.276;2023-03-14T13:07:29;0;0;
62591;PMS5003;48659;41.622;2.276;2023-03-14T13:10:00;1;1;
62591;PMS5003;48659;41.622;2.276;2023-03-14T13:12:36;1;1;
62591;PMS5003;48659;41.622;2.276;2023-03-14T13:15:16;0;0;
62591;PMS5003;48659;41.622;2.276;2023-03-14T13:17:48;1;1;
62591;PMS5003;48659;41.622;2.276;2023-03-14T13:20:21;0;0;
62591;PMS5003;48659;41.622;2.276;2023-03-14T13:22:53;0;0;
62591;PMS5003;48659;41.622;2.276;2023-03-14T13:25:21;1;0;
62591;PMS5003;48659;41.622;2.276;2023-03-14T13:27:49;2;2;
62591;PMS5003;48659;41.622;2.276;2023-03-14T13:30:21;2;2;
62591;PMS5003;48659;41.622;2.276;2023-03-14T13:32:50;2;2;
62591;PMS5003;48659;41.622;2.276;2023-03-14T13:35:21;0;0;
62591;PMS5003;48659;41.622;2.276;2023-03-14T13:37:54;0;0;
62591;PMS5003;48659;41.622;2.276;2023-03-14T13:40:26;0;0;
62591;PMS5003;48659;41.622;2.276;2023-03-14T13:43:01;1;0;
62591;PMS5003;48659;41.622;2.276;2023-03-14T13:45:31;1;1;
62591;PMS5003;48659;41.622;2.276;2023-03-14T13:48:08;1;1;
62591;PMS5003;48659;41.622;2.276;2023-03-14T13:50:37;1;1;
62591;PMS5003;48659;41.622;2.276;2023-03-14T13:53:21;1;1;
62591;PMS5003;48659;41.622;2.276;2023-03-14T13:55:51;1;1;
62591;PMS5003;48659;41.622;2.276;2023-03-14T13:58:22;1;0;
62591;PMS5003;48659;41.622;2.276;2023-03-14T14:00:59;1;1;
62591;PMS5003;48659;41.622;2.276;2023-03-14T14:03:31;0;0;
62591;PMS5003;48659;41.622;2.276;2023-03-14T14:06:00;1;0;
62591;PMS5003;48659;41.622;2.276;2023-03-14T14:08:28;1;1;
62591;PMS5003;48659;41.622;2.276;2023-03-14T14:10:58;3;1;
62591;PMS5003;48659;41.622;2.276;2023-03-14T14:13:29;4;1;
62591;PMS5003;48659;41.622;2.276;2023-03-14T14:15:59;1;0;
62591;PMS5003;48659;41.622;2.276;2023-03-14T14:18:30;2;2;
62591;PMS5003;48659;41.622;2.276;2023-03-14T14:20:59;4;1;
62591;PMS5003;48659;41.622;2.276;2023-03-14T14:23:26;2;2;
62591;PMS5003;48659;41.622;2.276;2023-03-14T14:25:56;3;2;
62591;PMS5003;48659;41.622;2.276;2023-03-14T14:28:26;4;3;
62591;PMS5003;48659;41.622;2.276;2023-03-14T14:31:01;2;2;
62591;PMS5003;48659;41.622;2.276;2023-03-14T14:33:40;3;2;
62591;PMS5003;48659;41.622;2.276;2023-03-14T14:36:18;2;2;
62591;PMS5003;48659;41.622;2.276;2023-03-14T14:38:50;3;1;
62591;PMS5003;48659;41.622;2.276;2023-03-14T14:41:18;3;2;
62591;PMS5003;48659;41.622;2.276;2023-03-14T14:43:46;0;0;
62591;PMS5003;48659;41.622;2.276;2023-03-14T14:46:18;2;2;
62591;PMS5003;48659;41.622;2.276;2023-03-14T14:48:46;0;0;
62591;PMS5003;48659;41.622;2.276;2023-03-14T14:51:30;3;2;
62591;PMS5003;48659;41.622;2.276;2023-03-14T14:54:03;1;1;
62591;PMS5003;48659;41.622;2.276;2023-03-14T14:57:01;2;1;
62591;PMS5003;48659;41.622;2.276;2023-03-14T14:59:30;1;1;
62591;PMS5003;48659;41.622;2.276;2023-03-14T15:01:59;2;1;
62591;PMS5003;48659;41.622;2.276;2023-03-14T15:04:29;4;3;
62591;PMS5003;48659;41.622;2.276;2023-03-14T15:06:58;5;5;
62591;PMS5003;48659;41.622;2.276;2023-03-14T15:09:25;3;3;
62591;PMS5003;48659;41.622;2.276;2023-03-14T15:11:53;4;2;
62591;PMS5003;48659;41.622;2.276;2023-03-14T15:14:21;2;2;
62591;PMS5003;48659;41.622;2.276;2023-03-14T15:16:48;2;2;
62591;PMS5003;48659;41.622;2.276;2023-03-14T15:19:19;2;2;
62591;PMS5003;48659;41.622;2.276;2023-03-14T15:21:49;2;2;
62591;PMS5003;48659;41.622;2.276;2023-03-14T15:24:17;3;3;
62591;PMS5003;48659;41.622;2.276;2023-03-14T15:26:45;3;3;
62591;PMS5003;48659;41.622;2.276;2023-03-14T15:29:17;3;3;
62591;PMS5003;48659;41.622;2.276;2023-03-14T15:31:45;2;2;
62591;PMS5003;48659;41.622;2.276;2023-03-14T15:34:16;3;2;
62591;PMS5003;48659;41.622;2.276;2023-03-14T15:36:43;3;2;
62591;PMS5003;48659;41.622;2.276;2023-03-14T15:39:17;1;1;
62591;PMS5003;48659;41.622;2.276;2023-03-14T15:41:44;2;2;
62591;PMS5003;48659;41.622;2.276;2023-03-14T15:44:16;4;3;
62591;PMS5003;48659;41.622;2.276;2023-03-14T15:46:43;7;5;
62591;PMS5003;48659;41.622;2.276;2023-03-14T15:49:16;2;2;
62591;PMS5003;48659;41.622;2.276;2023-03-14T15:51:44;5;2;
62591;PMS5003;48659;41.622;2.276;2023-03-14T15:54:16;1;1;
62591;PMS5003;48659;41.622;2.276;2023-03-14T15:56:44;3;3;
62591;PMS5003;48659;41.622;2.276;2023-03-14T15:59:17;4;3;
62591;PMS5003;48659;41.622;2.276;2023-03-14T16:01:44;2;2;
62591;PMS5003;48659;41.622;2.276;2023-03-14T16:04:16;3;3;
62591;PMS5003;48659;41.622;2.276;2023-03-14T16:06:43;5;4;
62591;PMS5003;48659;41.622;2.276;2023-03-14T16:09:16;3;2;
62591;PMS5003;48659;41.622;2.276;2023-03-14T16:11:43;2;2;
62591;PMS5003;48659;41.622;2.276;2023-03-14T16:14:17;5;2;
62591;PMS5003;48659;41.622;2.276;2023-03-14T16:16:44;2;2;
62591;PMS5003;48659;41.622;2.276;2023-03-14T16:19:17;3;3;
62591;PMS5003;48659;41.622;2.276;2023-03-14T16:21:46;1;1;
62591;PMS5003;48659;41.622;2.276;2023-03-14T16:24:17;2;2;
62591;PMS5003;48659;41.622;2.276;2023-03-14T16:26:45;6;4;
62591;PMS5003;48659;41.622;2.276;2023-03-14T16:29:16;6;4;
62591;PMS5003;48659;41.622;2.276;2023-03-14T16:31:44;2;2;
62591;PMS5003;48659;41.622;2.276;2023-03-14T16:34:16;4;3;
62591;PMS5003;48659;41.622;2.276;2023-03-14T16:36:44;3;2;
62591;PMS5003;48659;41.622;2.276;2023-03-14T16:39:18;3;3;
62591;PMS5003;48659;41.622;2.276;2023-03-14T16:41:45;2;2;
62591;PMS5003;48659;41.622;2.276;2023-03-14T16:44:16;3;3;
62591;PMS5003;48659;41.622;2.276;2023-03-14T16:46:44;3;3;
62591;PMS5003;48659;41.622;2.276;2023-03-14T16:49:17;3;3;
62591;PMS5003;48659;41.622;2.276;2023-03-14T16:51:44;4;2;
62591;PMS5003;48659;41.622;2.276;2023-03-14T16:54:16;2;1;
62591;PMS5003;48659;41.622;2.276;2023-03-14T16:56:43;5;2;
62591;PMS5003;48659;41.622;2.276;2023-03-14T16:59:17;6;4;
62591;PMS5003;48659;41.622;2.276;2023-03-14T17:01:45;3;3;
62591;PMS5003;48659;41.622;2.276;2023-03-14T17:04:17;5;3;
62591;PMS5003;48659;41.622;2.276;2023-03-14T17:06:44;2;2;
62591;PMS5003;48659;41.622;2.276;2023-03-14T17:09:17;4;4;
62591;PMS5003;48659;41.622;2.276;2023-03-14T17:11:45;4;4;
62591;PMS5003;48659;41.622;2.276;2023-03-14T17:14:17;4;4;
62591;PMS5003;48659;41.622;2.276;2023-03-14T17:16:45;4;4;